sensor_id;sensor_type;location;lat;lon;timestamp;temperature;humidity
65374;SHT31;52070;53.760;9.678;2023-01-08T00:02:02;9.07;78.31
65374;SHT31;52070;53.760;9.678;2023-01-08T00:04:30;9.03;78.44
65374;SHT31;52070;53.760;9.678;2023-01-08T00:06:57;9.11;78.20
65374;SHT31;52070;53.760;9.678;2023-01-08T00:09:24;9.08;78.49
65374;SHT31;52070;53.760;9.678;2023-01-08T00:11:51;9.05;78.37
65374;SHT31;52070;53.760;9.678;2023-01-08T00:14:18;9.11;78.28
65374;SHT31;52070;53.760;9.678;2023-01-08T00:16:45;9.10;78.17
65374;SHT31;52070;53.760;9.678;2023-01-08T00:19:12;9.08;78.28
65374;SHT31;52070;53.760;9.678;2023-01-08T00:21:40;9.14;78.09
65374;SHT31;52070;53.760;9.678;2023-01-08T00:24:07;9.14;78.25
65374;SHT31;52070;53.760;9.678;2023-01-08T00:26:35;9.15;78.23
65374;SHT31;52070;53.760;9.678;2023-01-08T00:29:02;9.25;77.50
65374;SHT31;52070;53.760;9.678;2023-01-08T00:31:29;9.24;77.91
65374;SHT31;52070;53.760;9.678;2023-01-08T00:33:55;9.25;77.83
65374;SHT31;52070;53.760;9.678;2023-01-08T00:36:22;9.31;77.76
65374;SHT31;52070;53.760;9.678;2023-01-08T00:38:51;9.30;77.92
65374;SHT31;52070;53.760;9.678;2023-01-08T00:41:18;9.22;77.67
65374;SHT31;52070;53.760;9.678;2023-01-08T00:43:45;9.24;78.01
65374;SHT31;52070;53.760;9.678;2023-01-08T00:46:12;9.27;78.13
65374;SHT31;52070;53.760;9.678;2023-01-08T00:48:39;9.22;78.15
65374;SHT31;52070;53.760;9.678;2023-01-08T00:51:06;9.22;78.14
65374;SHT31;52070;53.760;9.678;2023-01-08T00:53:34;9.21;78.19
65374;SHT31;52070;53.760;9.678;2023-01-08T00:56:06;9.20;78.04
65374;SHT31;52070;53.760;9.678;2023-01-08T00:58:34;9.22;78.14
65374;SHT31;52070;53.760;9.678;2023-01-08T01:01:01;9.20;78.34
65374;SHT31;52070;53.760;9.678;2023-01-08T01:03:29;9.30;77.86
65374;SHT31;52070;53.760;9.678;2023-01-08T01:06:00;9.24;78.23
65374;SHT31;52070;53.760;9.678;2023-01-08T01:08:26;9.21;78.29
65374;SHT31;52070;53.760;9.678;2023-01-08T01:10:53;9.24;78.51
65374;SHT31;52070;53.760;9.678;2023-01-08T01:13:22;9.21;78.51
65374;SHT31;52070;53.760;9.678;2023-01-08T01:15:56;9.18;78.52
65374;SHT31;52070;53.760;9.678;2023-01-08T01:18:23;9.24;78.41
65374;SHT31;52070;53.760;9.678;2023-01-08T01:20:49;9.28;78.29
65374;SHT31;52070;53.760;9.678;2023-01-08T01:23:17;9.21;78.56
65374;SHT31;52070;53.760;9.678;2023-01-08T01:25:44;9.22;78.63
65374;SHT31;52070;53.760;9.678;2023-01-08T01:28:11;9.22;78.65
65374;SHT31;52070;53.760;9.678;2023-01-08T01:30:39;9.21;78.62
65374;SHT31;52070;53.760;9.678;2023-01-08T01:33:06;9.28;78.31
65374;SHT31;52070;53.760;9.678;2023-01-08T01:35:33;9.28;78.50
65374;SHT31;52070;53.760;9.678;2023-01-08T01:38:00;9.32;78.55
65374;SHT31;52070;53.760;9.678;2023-01-08T01:40:27;9.39;78.28
65374;SHT31;52070;53.760;9.678;2023-01-08T01:42:53;9.45;77.84
65374;SHT31;52070;53.760;9.678;2023-01-08T01:45:22;9.45;78.01
65374;SHT31;52070;53.760;9.678;2023-01-08T01:47:56;9.39;78.26
65374;SHT31;52070;53.760;9.678;2023-01-08T01:50:27;9.45;78.12
65374;SHT31;52070;53.760;9.678;2023-01-08T01:52:59;9.41;78.34
65374;SHT31;52070;53.760;9.678;2023-01-08T01:55:27;9.41;78.42
65374;SHT31;52070;53.760;9.678;2023-01-08T01:58:00;9.43;78.28
65374;SHT31;52070;53.760;9.678;2023-01-08T02:00:29;9.41;78.34
65374;SHT31;52070;53.760;9.678;2023-01-08T02:02:58;9.46;78.43
65374;SHT31;52070;53.760;9.678;2023-01-08T02:05:32;9.43;78.41
65374;SHT31;52070;53.760;9.678;2023-01-08T02:08:06;9.45;78.55
65374;SHT31;52070;53.760;9.678;2023-01-08T02:10:41;9.42;78.85
65374;SHT31;52070;53.760;9.678;2023-01-08T02:13:16;9.36;78.92
65374;SHT31;52070;53.760;9.678;2023-01-08T02:15:48;9.41;79.03
65374;SHT31;52070;53.760;9.678;2023-01-08T02:18:22;9.42;79.03
65374;SHT31;52070;53.760;9.678;2023-01-08T02:20:55;9.39;79.06
65374;SHT31;52070;53.760;9.678;2023-01-08T02:23:25;9.38;79.49
65374;SHT31;52070;53.760;9.678;2023-01-08T02:26:06;9.39;79.46
65374;SHT31;52070;53.760;9.678;2023-01-08T02:28:38;9.38;79.47
65374;SHT31;52070;53.760;9.678;2023-01-08T02:31:06;9.31;79.69
65374;SHT31;52070;53.760;9.678;2023-01-08T02:33:34;9.27;79.94
65374;SHT31;52070;53.760;9.678;2023-01-08T02:36:29;9.25;80.08
65374;SHT31;52070;53.760;9.678;2023-01-08T02:39:08;9.30;80.03
65374;SHT31;52070;53.760;9.678;2023-01-08T02:44:33;9.20;80.29
65374;SHT31;52070;53.760;9.678;2023-01-08T02:47:02;9.14;80.69
65374;SHT31;52070;53.760;9.678;2023-01-08T02:49:34;9.08;80.96
65374;SHT31;52070;53.760;9.678;2023-01-08T02:52:05;9.10;80.94
65374;SHT31;52070;53.760;9.678;2023-01-08T02:54:34;9.04;81.11
65374;SHT31;52070;53.760;9.678;2023-01-08T02:57:07;9.11;81.09
65374;SHT31;52070;53.760;9.678;2023-01-08T02:59:36;9.04;81.24
65374;SHT31;52070;53.760;9.678;2023-01-08T03:02:04;9.03;81.37
65374;SHT31;52070;53.760;9.678;2023-01-08T03:04:36;8.96;81.47
65374;SHT31;52070;53.760;9.678;2023-01-08T03:07:05;8.90;81.72
65374;SHT31;52070;53.760;9.678;2023-01-08T03:09:33;8.84;81.94
65374;SHT31;52070;53.760;9.678;2023-01-08T03:12:05;8.78;82.17
65374;SHT31;52070;53.760;9.678;2023-01-08T03:14:36;8.73;82.40
65374;SHT31;52070;53.760;9.678;2023-01-08T03:17:07;8.68;82.69
65374;SHT31;52070;53.760;9.678;2023-01-08T03:19:41;8.63;82.85
65374;SHT31;52070;53.760;9.678;2023-01-08T03:22:11;8.64;83.07
65374;SHT31;52070;53.760;9.678;2023-01-08T03:24:40;8.67;83.02
65374;SHT31;52070;53.760;9.678;2023-01-08T03:27:13;8.70;82.99
65374;SHT31;52070;53.760;9.678;2023-01-08T03:29:42;8.68;83.14
65374;SHT31;52070;53.760;9.678;2023-01-08T03:32:12;8.77;82.97
65374;SHT31;52070;53.760;9.678;2023-01-08T03:34:41;8.81;82.75
65374;SHT31;52070;53.760;9.678;2023-01-08T03:37:10;8.80;82.79
65374;SHT31;52070;53.760;9.678;2023-01-08T03:39:41;8.77;82.78
65374;SHT31;52070;53.760;9.678;2023-01-08T03:42:14;8.78;82.94
65374;SHT31;52070;53.760;9.678;2023-01-08T03:44:42;8.80;82.90
65374;SHT31;52070;53.760;9.678;2023-01-08T03:47:10;8.83;82.75
65374;SHT31;52070;53.760;9.678;2023-01-08T03:49:39;8.91;82.74
65374;SHT31;52070;53.760;9.678;2023-01-08T03:52:06;8.92;82.69
65374;SHT31;52070;53.760;9.678;2023-01-08T03:54:35;8.96;82.55
65374;SHT31;52070;53.760;9.678;2023-01-08T03:57:02;9.01;82.46
65374;SHT31;52070;53.760;9.678;2023-01-08T03:59:31;9.03;82.46
65374;SHT31;52070;53.760;9.678;2023-01-08T04:01:57;9.05;82.40
65374;SHT31;52070;53.760;9.678;2023-01-08T04:04:24;9.10;82.42
65374;SHT31;52070;53.760;9.678;2023-01-08T04:06:51;9.08;82.22
65374;SHT31;52070;53.760;9.678;2023-01-08T04:09:19;9.10;82.20
65374;SHT31;52070;53.760;9.678;2023-01-08T04:11:46;9.08;82.20
65374;SHT31;52070;53.760;9.678;2023-01-08T04:14:13;9.12;82.21
65374;SHT31;52070;53.760;9.678;2023-01-08T04:16:41;9.11;82.18
65374;SHT31;52070;53.760;9.678;2023-01-08T04:19:09;9.17;81.93
65374;SHT31;52070;53.760;9.678;2023-01-08T04:21:36;9.12;82.06
65374;SHT31;52070;53.760;9.678;2023-01-08T04:24:04;9.11;82.12
65374;SHT31;52070;53.760;9.678;2023-01-08T04:26:32;9.12;82.12
65374;SHT31;52070;53.760;9.678;2023-01-08T04:29:01;9.17;81.96
65374;SHT31;52070;53.760;9.678;2023-01-08T04:31:28;9.12;82.12
65374;SHT31;52070;53.760;9.678;2023-01-08T04:33:56;9.10;82.05
65374;SHT31;52070;53.760;9.678;2023-01-08T04:36:23;9.05;82.30
65374;SHT31;52070;53.760;9.678;2023-01-08T04:38:50;9.03;82.45
65374;SHT31;52070;53.760;9.678;2023-01-08T04:41:17;9.01;82.55
65374;SHT31;52070;53.760;9.678;2023-01-08T04:43:44;9.00;82.54
65374;SHT31;52070;53.760;9.678;2023-01-08T04:46:12;9.04;82.65
65374;SHT31;52070;53.760;9.678;2023-01-08T04:48:39;9.11;82.41
65374;SHT31;52070;53.760;9.678;2023-01-08T04:51:07;9.05;82.51
65374;SHT31;52070;53.760;9.678;2023-01-08T04:53:35;9.10;82.51
65374;SHT31;52070;53.760;9.678;2023-01-08T04:56:04;9.07;82.53
65374;SHT31;52070;53.760;9.678;2023-01-08T04:58:32;9.04;82.63
65374;SHT31;52070;53.760;9.678;2023-01-08T05:00:59;9.03;82.80
65374;SHT31;52070;53.760;9.678;2023-01-08T05:03:25;9.08;82.60
65374;SHT31;52070;53.760;9.678;2023-01-08T05:05:52;9.04;82.70
65374;SHT31;52070;53.760;9.678;2023-01-08T05:08:21;8.96;82.91
65374;SHT31;52070;53.760;9.678;2023-01-08T05:10:48;8.96;83.05
65374;SHT31;52070;53.760;9.678;2023-01-08T05:13:15;8.91;83.06
65374;SHT31;52070;53.760;9.678;2023-01-08T05:15:42;8.97;83.10
65374;SHT31;52070;53.760;9.678;2023-01-08T05:18:08;8.92;83.06
65374;SHT31;52070;53.760;9.678;2023-01-08T05:20:35;9.00;83.02
65374;SHT31;52070;53.760;9.678;2023-01-08T05:23:02;8.90;83.04
65374;SHT31;52070;53.760;9.678;2023-01-08T05:25:31;8.80;83.40
65374;SHT31;52070;53.760;9.678;2023-01-08T05:27:58;8.80;83.57
65374;SHT31;52070;53.760;9.678;2023-01-08T05:30:25;8.84;83.40
65374;SHT31;52070;53.760;9.678;2023-01-08T05:32:52;8.91;83.23
65374;SHT31;52070;53.760;9.678;2023-01-08T05:35:19;8.81;83.29
65374;SHT31;52070;53.760;9.678;2023-01-08T05:37:45;8.70;83.65
65374;SHT31;52070;53.760;9.678;2023-01-08T05:40:12;8.67;83.98
65374;SHT31;52070;53.760;9.678;2023-01-08T05:42:41;8.68;84.13
65374;SHT31;52070;53.760;9.678;2023-01-08T05:45:08;8.71;83.95
65374;SHT31;52070;53.760;9.678;2023-01-08T05:47:35;8.64;84.07
65374;SHT31;52070;53.760;9.678;2023-01-08T05:50:02;8.76;84.00
65374;SHT31;52070;53.760;9.678;2023-01-08T05:52:29;8.74;83.83
65374;SHT31;52070;53.760;9.678;2023-01-08T05:54:56;8.68;84.01
65374;SHT31;52070;53.760;9.678;2023-01-08T05:57:24;8.67;84.13
65374;SHT31;52070;53.760;9.678;2023-01-08T05:59:53;8.64;84.28
65374;SHT31;52070;53.760;9.678;2023-01-08T06:02:20;8.73;84.33
65374;SHT31;52070;53.760;9.678;2023-01-08T06:04:47;8.77;84.03
65374;SHT31;52070;53.760;9.678;2023-01-08T06:07:14;8.76;84.12
65374;SHT31;52070;53.760;9.678;2023-01-08T06:09:40;8.80;84.16
65374;SHT31;52070;53.760;9.678;2023-01-08T06:12:07;8.76;84.22
65374;SHT31;52070;53.760;9.678;2023-01-08T06:14:34;8.81;84.14
65374;SHT31;52070;53.760;9.678;2023-01-08T06:17:03;8.80;84.01
65374;SHT31;52070;53.760;9.678;2023-01-08T06:19:30;8.78;84.11
65374;SHT31;52070;53.760;9.678;2023-01-08T06:21:57;8.78;84.13
65374;SHT31;52070;53.760;9.678;2023-01-08T06:24:24;8.84;84.15
65374;SHT31;52070;53.760;9.678;2023-01-08T06:26:50;8.81;84.12
65374;SHT31;52070;53.760;9.678;2023-01-08T06:29:18;8.83;84.07
65374;SHT31;52070;53.760;9.678;2023-01-08T06:31:45;8.84;84.10
65374;SHT31;52070;53.760;9.678;2023-01-08T06:34:13;8.88;84.20
65374;SHT31;52070;53.760;9.678;2023-01-08T06:36:40;8.81;84.19
65374;SHT31;52070;53.760;9.678;2023-01-08T06:39:07;8.83;84.31
65374;SHT31;52070;53.760;9.678;2023-01-08T06:41:34;8.83;84.45
65374;SHT31;52070;53.760;9.678;2023-01-08T06:44:01;8.80;84.48
65374;SHT31;52070;53.760;9.678;2023-01-08T06:46:28;8.80;84.59
65374;SHT31;52070;53.760;9.678;2023-01-08T06:48:56;8.78;84.64
65374;SHT31;52070;53.760;9.678;2023-01-08T06:51:24;8.84;84.59
65374;SHT31;52070;53.760;9.678;2023-01-08T06:53:51;8.90;84.54
65374;SHT31;52070;53.760;9.678;2023-01-08T06:56:18;8.88;84.48
65374;SHT31;52070;53.760;9.678;2023-01-08T06:58:45;8.88;84.57
65374;SHT31;52070;53.760;9.678;2023-01-08T07:01:13;8.90;84.42
65374;SHT31;52070;53.760;9.678;2023-01-08T07:03:40;8.91;84.50
65374;SHT31;52070;53.760;9.678;2023-01-08T07:06:12;8.94;84.38
65374;SHT31;52070;53.760;9.678;2023-01-08T07:08:41;8.88;84.54
65374;SHT31;52070;53.760;9.678;2023-01-08T07:11:08;8.88;84.69
65374;SHT31;52070;53.760;9.678;2023-01-08T07:13:35;8.91;84.68
65374;SHT31;52070;53.760;9.678;2023-01-08T07:16:05;8.91;84.60
65374;SHT31;52070;53.760;9.678;2023-01-08T07:18:33;8.96;84.52
65374;SHT31;52070;53.760;9.678;2023-01-08T07:21:00;8.98;84.49
65374;SHT31;52070;53.760;9.678;2023-01-08T07:23:28;9.05;84.26
65374;SHT31;52070;53.760;9.678;2023-01-08T07:25:58;9.05;84.30
65374;SHT31;52070;53.760;9.678;2023-01-08T07:28:25;9.01;84.30
65374;SHT31;52070;53.760;9.678;2023-01-08T07:30:52;9.01;84.40
65374;SHT31;52070;53.760;9.678;2023-01-08T07:33:19;9.04;84.44
65374;SHT31;52070;53.760;9.678;2023-01-08T07:35:50;8.96;84.52
65374;SHT31;52070;53.760;9.678;2023-01-08T07:38:17;8.97;84.65
65374;SHT31;52070;53.760;9.678;2023-01-08T07:40:44;9.01;84.63
65374;SHT31;52070;53.760;9.678;2023-01-08T07:43:13;9.00;84.41
65374;SHT31;52070;53.760;9.678;2023-01-08T07:45:40;9.10;84.29
65374;SHT31;52070;53.760;9.678;2023-01-08T07:48:07;9.15;83.97
65374;SHT31;52070;53.760;9.678;2023-01-08T07:50:40;9.15;83.94
65374;SHT31;52070;53.760;9.678;2023-01-08T07:53:09;9.11;84.18
65374;SHT31;52070;53.760;9.678;2023-01-08T07:55:36;9.10;84.37
65374;SHT31;52070;53.760;9.678;2023-01-08T07:58:07;9.12;84.26
65374;SHT31;52070;53.760;9.678;2023-01-08T08:00:36;9.08;84.42
65374;SHT31;52070;53.760;9.678;2023-01-08T08:03:04;9.15;84.39
65374;SHT31;52070;53.760;9.678;2023-01-08T08:05:32;9.17;84.27
65374;SHT31;52070;53.760;9.678;2023-01-08T08:07:59;9.15;84.48
65374;SHT31;52070;53.760;9.678;2023-01-08T08:10:26;9.20;84.72
65374;SHT31;52070;53.760;9.678;2023-01-08T08:12:53;9.14;85.20
65374;SHT31;52070;53.760;9.678;2023-01-08T08:15:20;9.10;85.53
65374;SHT31;52070;53.760;9.678;2023-01-08T08:17:49;9.08;86.08
65374;SHT31;52070;53.760;9.678;2023-01-08T08:20:16;9.03;87.20
65374;SHT31;52070;53.760;9.678;2023-01-08T08:22:43;8.97;87.99
65374;SHT31;52070;53.760;9.678;2023-01-08T08:25:10;8.97;88.17
65374;SHT31;52070;53.760;9.678;2023-01-08T08:27:40;8.91;88.25
65374;SHT31;52070;53.760;9.678;2023-01-08T08:30:08;8.94;88.61
65374;SHT31;52070;53.760;9.678;2023-01-08T08:32:35;8.87;88.78
65374;SHT31;52070;53.760;9.678;2023-01-08T08:35:05;8.80;89.16
65374;SHT31;52070;53.760;9.678;2023-01-08T08:37:32;8.80;89.39
65374;SHT31;52070;53.760;9.678;2023-01-08T08:39:59;8.87;89.43
65374;SHT31;52070;53.760;9.678;2023-01-08T08:42:26;8.80;89.64
65374;SHT31;52070;53.760;9.678;2023-01-08T08:44:53;8.81;89.78
65374;SHT31;52070;53.760;9.678;2023-01-08T08:47:20;8.78;89.99
65374;SHT31;52070;53.760;9.678;2023-01-08T08:49:47;8.74;90.27
65374;SHT31;52070;53.760;9.678;2023-01-08T08:52:15;8.76;90.52
65374;SHT31;52070;53.760;9.678;2023-01-08T08:54:42;8.77;90.48
65374;SHT31;52070;53.760;9.678;2023-01-08T08:57:09;8.74;90.53
65374;SHT31;52070;53.760;9.678;2023-01-08T08:59:36;8.73;90.66
65374;SHT31;52070;53.760;9.678;2023-01-08T09:02:03;8.71;90.73
65374;SHT31;52070;53.760;9.678;2023-01-08T09:04:31;8.71;90.85
65374;SHT31;52070;53.760;9.678;2023-01-08T09:06:58;8.78;90.91
65374;SHT31;52070;53.760;9.678;2023-01-08T09:09:27;8.73;90.86
65374;SHT31;52070;53.760;9.678;2023-01-08T09:11:55;8.77;90.91
65374;SHT31;52070;53.760;9.678;2023-01-08T09:14:22;8.80;90.98
65374;SHT31;52070;53.760;9.678;2023-01-08T09:16:48;8.83;90.90
65374;SHT31;52070;53.760;9.678;2023-01-08T09:19:15;8.80;90.83
65374;SHT31;52070;53.760;9.678;2023-01-08T09:21:42;8.78;90.84
65374;SHT31;52070;53.760;9.678;2023-01-08T09:24:09;8.81;91.08
65374;SHT31;52070;53.760;9.678;2023-01-08T09:26:38;8.88;90.81
65374;SHT31;52070;53.760;9.678;2023-01-08T09:29:05;8.90;90.58
65374;SHT31;52070;53.760;9.678;2023-01-08T09:31:33;8.91;90.58
65374;SHT31;52070;53.760;9.678;2023-01-08T09:34:00;8.90;90.58
65374;SHT31;52070;53.760;9.678;2023-01-08T09:36:27;8.90;90.54
65374;SHT31;52070;53.760;9.678;2023-01-08T09:38:54;8.92;90.59
65374;SHT31;52070;53.760;9.678;2023-01-08T09:41:24;9.00;90.44
65374;SHT31;52070;53.760;9.678;2023-01-08T09:43:55;9.03;90.39
65374;SHT31;52070;53.760;9.678;2023-01-08T09:46:25;9.08;90.14
65374;SHT31;52070;53.760;9.678;2023-01-08T09:48:54;9.14;90.00
65374;SHT31;52070;53.760;9.678;2023-01-08T09:51:32;9.20;89.72
65374;SHT31;52070;53.760;9.678;2023-01-08T09:54:00;9.17;89.55
65374;SHT31;52070;53.760;9.678;2023-01-08T09:56:28;9.22;89.52
65374;SHT31;52070;53.760;9.678;2023-01-08T09:58:58;9.27;89.44
65374;SHT31;52070;53.760;9.678;2023-01-08T10:01:27;9.32;89.37
65374;SHT31;52070;53.760;9.678;2023-01-08T10:03:56;9.35;89.31
65374;SHT31;52070;53.760;9.678;2023-01-08T10:06:25;9.41;89.20
65374;SHT31;52070;53.760;9.678;2023-01-08T10:08:52;9.43;88.79
65374;SHT31;52070;53.760;9.678;2023-01-08T10:11:19;9.48;88.59
65374;SHT31;52070;53.760;9.678;2023-01-08T10:13:50;9.45;88.57
65374;SHT31;52070;53.760;9.678;2023-01-08T10:16:25;9.41;88.63
65374;SHT31;52070;53.760;9.678;2023-01-08T10:18:55;9.42;88.78
65374;SHT31;52070;53.760;9.678;2023-01-08T10:21:28;9.45;88.77
65374;SHT31;52070;53.760;9.678;2023-01-08T10:23:55;9.46;88.51
65374;SHT31;52070;53.760;9.678;2023-01-08T10:26:27;9.39;88.60
65374;SHT31;52070;53.760;9.678;2023-01-08T10:29:10;9.43;88.79
65374;SHT31;52070;53.760;9.678;2023-01-08T10:31:44;9.48;88.77
65374;SHT31;52070;53.760;9.678;2023-01-08T10:34:21;9.51;88.34
65374;SHT31;52070;53.760;9.678;2023-01-08T10:36:49;9.51;88.31
65374;SHT31;52070;53.760;9.678;2023-01-08T10:39:21;9.51;88.21
65374;SHT31;52070;53.760;9.678;2023-01-08T10:41:49;9.53;88.36
65374;SHT31;52070;53.760;9.678;2023-01-08T10:44:19;9.52;88.41
65374;SHT31;52070;53.760;9.678;2023-01-08T10:46:52;9.58;88.50
65374;SHT31;52070;53.760;9.678;2023-01-08T10:49:25;9.56;88.42
65374;SHT31;52070;53.760;9.678;2023-01-08T10:51:54;9.62;88.08
65374;SHT31;52070;53.760;9.678;2023-01-08T10:54:33;9.53;87.83
65374;SHT31;52070;53.760;9.678;2023-01-08T10:57:01;9.61;87.59
65374;SHT31;52070;53.760;9.678;2023-01-08T10:59:28;9.63;87.67
65374;SHT31;52070;53.760;9.678;2023-01-08T11:01:58;9.71;87.33
65374;SHT31;52070;53.760;9.678;2023-01-08T11:04:28;9.71;87.10
65374;SHT31;52070;53.760;9.678;2023-01-08T11:06:59;9.73;86.86
65374;SHT31;52070;53.760;9.678;2023-01-08T11:09:29;9.68;86.85
65374;SHT31;52070;53.760;9.678;2023-01-08T11:11:58;9.72;87.01
65374;SHT31;52070;53.760;9.678;2023-01-08T11:14:28;9.72;86.95
65374;SHT31;52070;53.760;9.678;2023-01-08T11:16:56;9.71;86.93
65374;SHT31;52070;53.760;9.678;2023-01-08T11:19:26;9.81;87.06
65374;SHT31;52070;53.760;9.678;2023-01-08T11:21:56;9.87;86.84
65374;SHT31;52070;53.760;9.678;2023-01-08T11:24:29;9.95;86.69
65374;SHT31;52070;53.760;9.678;2023-01-08T11:27:02;9.96;86.48
65374;SHT31;52070;53.760;9.678;2023-01-08T11:29:37;10.00;86.34
65374;SHT31;52070;53.760;9.678;2023-01-08T11:32:25;10.09;86.02
65374;SHT31;52070;53.760;9.678;2023-01-08T11:35:00;10.09;85.44
65374;SHT31;52070;53.760;9.678;2023-01-08T11:37:32;10.17;85.07
65374;SHT31;52070;53.760;9.678;2023-01-08T11:40:01;10.17;84.31
65374;SHT31;52070;53.760;9.678;2023-01-08T11:42:42;10.14;84.01
65374;SHT31;52070;53.760;9.678;2023-01-08T11:45:23;10.18;84.15
65374;SHT31;52070;53.760;9.678;2023-01-08T11:48:10;10.23;83.64
65374;SHT31;52070;53.760;9.678;2023-01-08T11:50:53;10.14;84.05
65374;SHT31;52070;53.760;9.678;2023-01-08T11:53:22;10.21;84.11
65374;SHT31;52070;53.760;9.678;2023-01-08T11:55:58;10.29;83.88
65374;SHT31;52070;53.760;9.678;2023-01-08T11:58:41;10.47;83.30
65374;SHT31;52070;53.760;9.678;2023-01-08T12:01:27;10.68;82.42
65374;SHT31;52070;53.760;9.678;2023-01-08T12:04:20;10.91;82.04
65374;SHT31;52070;53.760;9.678;2023-01-08T12:06:56;11.28;81.31
65374;SHT31;52070;53.760;9.678;2023-01-08T12:09:34;11.60;79.74
65374;SHT31;52070;53.760;9.678;2023-01-08T12:12:12;11.74;77.92
65374;SHT31;52070;53.760;9.678;2023-01-08T12:14:50;11.82;77.54
65374;SHT31;52070;53.760;9.678;2023-01-08T12:17:57;12.00;77.07
65374;SHT31;52070;53.760;9.678;2023-01-08T12:20:32;12.04;77.15
65374;SHT31;52070;53.760;9.678;2023-01-08T12:23:14;11.59;76.90
65374;SHT31;52070;53.760;9.678;2023-01-08T12:26:06;11.65;76.62
65374;SHT31;52070;53.760;9.678;2023-01-08T12:28:47;11.77;76.29
65374;SHT31;52070;53.760;9.678;2023-01-08T12:31:35;11.97;76.44
65374;SHT31;52070;53.760;9.678;2023-01-08T12:34:10;11.96;75.07
65374;SHT31;52070;53.760;9.678;2023-01-08T12:36:41;12.17;74.97
65374;SHT31;52070;53.760;9.678;2023-01-08T12:39:14;12.00;73.30
65374;SHT31;52070;53.760;9.678;2023-01-08T12:41:44;11.84;73.55
65374;SHT31;52070;53.760;9.678;2023-01-08T12:44:16;11.91;74.45
65374;SHT31;52070;53.760;9.678;2023-01-08T12:46:48;12.04;73.22
65374;SHT31;52070;53.760;9.678;2023-01-08T12:49:27;11.86;72.70
65374;SHT31;52070;53.760;9.678;2023-01-08T12:52:02;12.01;72.49
65374;SHT31;52070;53.760;9.678;2023-01-08T12:54:41;11.76;72.45
65374;SHT31;52070;53.760;9.678;2023-01-08T12:57:15;11.87;72.69
65374;SHT31;52070;53.760;9.678;2023-01-08T12:59:52;11.80;71.59
65374;SHT31;52070;53.760;9.678;2023-01-08T13:02:33;11.74;71.29
65374;SHT31;52070;53.760;9.678;2023-01-08T13:05:24;11.80;71.85
65374;SHT31;52070;53.760;9.678;2023-01-08T13:07:56;11.90;71.35
65374;SHT31;52070;53.760;9.678;2023-01-08T13:10:32;12.03;71.70
65374;SHT31;52070;53.760;9.678;2023-01-08T13:13:00;11.94;69.81
65374;SHT31;52070;53.760;9.678;2023-01-08T13:15:29;11.84;69.82
65374;SHT31;52070;53.760;9.678;2023-01-08T13:18:00;11.73;69.71
65374;SHT31;52070;53.760;9.678;2023-01-08T13:20:31;11.59;69.04
65374;SHT31;52070;53.760;9.678;2023-01-08T13:22:59;11.52;71.22
65374;SHT31;52070;53.760;9.678;2023-01-08T13:25:37;11.46;69.00
65374;SHT31;52070;53.760;9.678;2023-01-08T13:28:17;11.40;68.80
65374;SHT31;52070;53.760;9.678;2023-01-08T13:30:51;11.49;68.40
65374;SHT31;52070;53.760;9.678;2023-01-08T13:33:37;11.47;69.50
65374;SHT31;52070;53.760;9.678;2023-01-08T13:36:13;11.31;69.41
65374;SHT31;52070;53.760;9.678;2023-01-08T13:38:41;11.25;68.77
65374;SHT31;52070;53.760;9.678;2023-01-08T13:44:03;11.07;69.98
65374;SHT31;52070;53.760;9.678;2023-01-08T13:46:32;11.02;70.12
65374;SHT31;52070;53.760;9.678;2023-01-08T13:49:03;10.98;70.68
65374;SHT31;52070;53.760;9.678;2023-01-08T13:51:41;11.07;71.05
65374;SHT31;52070;53.760;9.678;2023-01-08T13:54:21;11.02;70.57
65374;SHT31;52070;53.760;9.678;2023-01-08T13:56:52;10.95;70.24
65374;SHT31;52070;53.760;9.678;2023-01-08T13:59:32;10.92;70.94
65374;SHT31;52070;53.760;9.678;2023-01-08T14:02:01;10.89;71.92
65374;SHT31;52070;53.760;9.678;2023-01-08T14:04:28;10.81;71.76
65374;SHT31;52070;53.760;9.678;2023-01-08T14:07:09;10.88;72.32
65374;SHT31;52070;53.760;9.678;2023-01-08T14:09:38;10.97;71.93
65374;SHT31;52070;53.760;9.678;2023-01-08T14:12:07;10.98;72.67
65374;SHT31;52070;53.760;9.678;2023-01-08T14:14:42;10.94;73.14
65374;SHT31;52070;53.760;9.678;2023-01-08T14:17:13;10.87;73.23
65374;SHT31;52070;53.760;9.678;2023-01-08T14:19:42;10.79;73.52
65374;SHT31;52070;53.760;9.678;2023-01-08T14:22:15;10.63;74.22
65374;SHT31;52070;53.760;9.678;2023-01-08T14:24:43;10.54;74.36
65374;SHT31;52070;53.760;9.678;2023-01-08T14:27:19;10.40;75.05
65374;SHT31;52070;53.760;9.678;2023-01-08T14:29:48;10.30;75.70
65374;SHT31;52070;53.760;9.678;2023-01-08T14:32:16;10.23;76.08
65374;SHT31;52070;53.760;9.678;2023-01-08T14:34:44;10.07;76.88
65374;SHT31;52070;53.760;9.678;2023-01-08T14:37:13;10.06;77.03
65374;SHT31;52070;53.760;9.678;2023-01-08T14:39:41;9.93;77.29
65374;SHT31;52070;53.760;9.678;2023-01-08T14:42:13;9.87;77.52
65374;SHT31;52070;53.760;9.678;2023-01-08T14:45:04;9.79;77.43
65374;SHT31;52070;53.760;9.678;2023-01-08T14:47:34;9.79;77.25
65374;SHT31;52070;53.760;9.678;2023-01-08T14:50:03;9.68;77.47
65374;SHT31;52070;53.760;9.678;2023-01-08T14:52:31;9.61;77.38
65374;SHT31;52070;53.760;9.678;2023-01-08T14:55:01;9.56;77.26
65374;SHT31;52070;53.760;9.678;2023-01-08T14:57:29;9.51;77.23
65374;SHT31;52070;53.760;9.678;2023-01-08T14:59:59;9.46;77.06
65374;SHT31;52070;53.760;9.678;2023-01-08T15:02:30;9.41;77.16
65374;SHT31;52070;53.760;9.678;2023-01-08T15:05:03;9.31;77.40
65374;SHT31;52070;53.760;9.678;2023-01-08T15:07:30;9.21;77.62
65374;SHT31;52070;53.760;9.678;2023-01-08T15:09:59;9.17;77.71
65374;SHT31;52070;53.760;9.678;2023-01-08T15:12:28;9.20;77.64
65374;SHT31;52070;53.760;9.678;2023-01-08T15:15:08;9.01;78.19
65374;SHT31;52070;53.760;9.678;2023-01-08T15:17:38;8.98;78.44
65374;SHT31;52070;53.760;9.678;2023-01-08T15:20:15;8.92;78.73
65374;SHT31;52070;53.760;9.678;2023-01-08T15:22:43;8.91;78.73
65374;SHT31;52070;53.760;9.678;2023-01-08T15:25:15;8.83;79.15
65374;SHT31;52070;53.760;9.678;2023-01-08T15:27:50;8.78;79.16
65374;SHT31;52070;53.760;9.678;2023-01-08T15:30:23;8.78;79.15
65374;SHT31;52070;53.760;9.678;2023-01-08T15:32:52;8.78;78.96
65374;SHT31;52070;53.760;9.678;2023-01-08T15:35:19;8.76;79.16
65374;SHT31;52070;53.760;9.678;2023-01-08T15:37:50;8.70;79.15
65374;SHT31;52070;53.760;9.678;2023-01-08T15:40:17;8.66;79.24
65374;SHT31;52070;53.760;9.678;2023-01-08T15:42:44;8.59;79.26
65374;SHT31;52070;53.760;9.678;2023-01-08T15:45:29;8.47;79.76
65374;SHT31;52070;53.760;9.678;2023-01-08T15:47:58;8.45;79.72
65374;SHT31;52070;53.760;9.678;2023-01-08T15:50:26;8.32;80.12
65374;SHT31;52070;53.760;9.678;2023-01-08T15:52:54;8.30;80.29
65374;SHT31;52070;53.760;9.678;2023-01-08T15:55:23;8.32;80.40
65374;SHT31;52070;53.760;9.678;2023-01-08T15:57:50;8.40;80.29
65374;SHT31;52070;53.760;9.678;2023-01-08T16:00:18;8.46;79.96
65374;SHT31;52070;53.760;9.678;2023-01-08T16:02:48;8.42;79.87
65374;SHT31;52070;53.760;9.678;2023-01-08T16:05:19;8.40;80.04
65374;SHT31;52070;53.760;9.678;2023-01-08T16:07:46;8.45;80.03